sensor_id;sensor_type;location;lat;lon;timestamp;P1;durP1;ratioP1;P2;durP2;ratioP2
35326;SDS011;21436;52.348;20.928;2022-10-16T00:01:42;23.73;;;15.57;;
35326;SDS011;21436;52.348;20.928;2022-10-16T00:04:11;26.10;;;16.27;;
35326;SDS011;21436;52.348;20.928;2022-10-16T00:06:39;26.13;;;15.77;;
35326;SDS011;21436;52.348;20.928;2022-10-16T00:09:08;28.38;;;15.77;;
35326;SDS011;21436;52.348;20.928;2022-10-16T00:11:37;26.38;;;16.17;;
35326;SDS011;21436;52.348;20.928;2022-10-16T00:14:11;31.58;;;15.77;;
35326;SDS011;21436;52.348;20.928;2022-10-16T00:16:41;27.00;;;15.85;;
35326;SDS011;21436;52.348;20.928;2022-10-16T00:19:10;24.00;;;15.18;;
35326;SDS011;21436;52.348;20.928;2022-10-16T00:21:39;24.90;;;14.48;;
35326;SDS011;21436;52.348;20.928;2022-10-16T00:24:08;25.25;;;13.23;;
35326;SDS011;21436;52.348;20.928;2022-10-16T00:26:37;22.17;;;13.18;;
35326;SDS011;21436;52.348;20.928;2022-10-16T00:29:06;19.83;;;12.68;;
35326;SDS011;21436;52.348;20.928;2022-10-16T00:31:35;25.75;;;13.63;;
35326;SDS011;21436;52.348;20.928;2022-10-16T00:34:03;20.50;;;12.82;;
35326;SDS011;21436;52.348;20.928;2022-10-16T00:36:31;23.35;;;12.60;;
35326;SDS011;21436;52.348;20.928;2022-10-16T00:39:00;20.65;;;12.90;;
35326;SDS011;21436;52.348;20.928;2022-10-16T00:41:29;22.35;;;12.80;;
35326;SDS011;21436;52.348;20.928;2022-10-16T00:43:59;24.38;;;13.57;;
35326;SDS011;21436;52.348;20.928;2022-10-16T00:46:38;18.38;;;11.60;;
35326;SDS011;21436;52.348;20.928;2022-10-16T00:49:09;18.95;;;11.43;;
35326;SDS011;21436;52.348;20.928;2022-10-16T00:51:46;19.92;;;12.25;;
35326;SDS011;21436;52.348;20.928;2022-10-16T00:54:29;19.50;;;12.65;;
35326;SDS011;21436;52.348;20.928;2022-10-16T00:57:01;18.65;;;11.80;;
35326;SDS011;21436;52.348;20.928;2022-10-16T00:59:34;17.83;;;11.57;;
35326;SDS011;21436;52.348;20.928;2022-10-16T01:02:05;16.85;;;11.25;;
35326;SDS011;21436;52.348;20.928;2022-10-16T01:04:35;18.60;;;11.20;;
35326;SDS011;21436;52.348;20.928;2022-10-16T01:12:51;16.65;;;10.30;;
35326;SDS011;21436;52.348;20.928;2022-10-16T01:18:18;18.52;;;10.45;;
35326;SDS011;21436;52.348;20.928;2022-10-16T01:20:51;19.17;;;10.77;;
35326;SDS011;21436;52.348;20.928;2022-10-16T01:29:18;24.00;;;13.32;;
35326;SDS011;21436;52.348;20.928;2022-10-16T01:31:53;22.48;;;12.18;;
35326;SDS011;21436;52.348;20.928;2022-10-16T01:34:42;22.13;;;12.65;;
35326;SDS011;21436;52.348;20.928;2022-10-16T01:37:21;21.60;;;12.80;;
35326;SDS011;21436;52.348;20.928;2022-10-16T01:39:55;17.90;;;12.27;;
35326;SDS011;21436;52.348;20.928;2022-10-16T01:42:29;21.23;;;13.27;;
35326;SDS011;21436;52.348;20.928;2022-10-16T01:45:02;18.77;;;11.75;;
35326;SDS011;21436;52.348;20.928;2022-10-16T01:47:35;19.90;;;13.27;;
35326;SDS011;21436;52.348;20.928;2022-10-16T01:50:04;21.45;;;13.20;;
35326;SDS011;21436;52.348;20.928;2022-10-16T01:52:39;23.15;;;13.32;;
35326;SDS011;21436;52.348;20.928;2022-10-16T01:55:09;18.95;;;12.65;;
35326;SDS011;21436;52.348;20.928;2022-10-16T01:57:39;20.38;;;12.90;;
35326;SDS011;21436;52.348;20.928;2022-10-16T02:00:11;21.42;;;13.55;;
35326;SDS011;21436;52.348;20.928;2022-10-16T02:02:40;20.92;;;13.27;;
35326;SDS011;21436;52.348;20.928;2022-10-16T02:05:18;23.35;;;14.02;;
35326;SDS011;21436;52.348;20.928;2022-10-16T02:07:55;22.35;;;13.63;;
35326;SDS011;21436;52.348;20.928;2022-10-16T02:10:29;25.80;;;14.40;;
35326;SDS011;21436;52.348;20.928;2022-10-16T02:15:52;22.17;;;14.13;;
35326;SDS011;21436;52.348;20.928;2022-10-16T02:18:21;25.20;;;14.50;;
35326;SDS011;21436;52.348;20.928;2022-10-16T02:20:53;23.90;;;14.77;;
35326;SDS011;21436;52.348;20.928;2022-10-16T02:23:29;21.85;;;14.15;;
35326;SDS011;21436;52.348;20.928;2022-10-16T02:26:04;24.02;;;14.57;;
35326;SDS011;21436;52.348;20.928;2022-10-16T02:28:40;22.98;;;14.73;;
35326;SDS011;21436;52.348;20.928;2022-10-16T02:31:12;21.45;;;14.60;;
35326;SDS011;21436;52.348;20.928;2022-10-16T02:33:44;28.90;;;15.68;;
35326;SDS011;21436;52.348;20.928;2022-10-16T02:36:13;23.67;;;14.60;;
35326;SDS011;21436;52.348;20.928;2022-10-16T02:38:41;24.33;;;15.35;;
35326;SDS011;21436;52.348;20.928;2022-10-16T02:41:09;26.52;;;15.50;;
35326;SDS011;21436;52.348;20.928;2022-10-16T02:43:37;29.10;;;15.77;;
35326;SDS011;21436;52.348;20.928;2022-10-16T02:46:06;26.88;;;15.82;;
35326;SDS011;21436;52.348;20.928;2022-10-16T02:48:34;23.55;;;15.35;;
35326;SDS011;21436;52.348;20.928;2022-10-16T02:51:02;26.65;;;15.93;;
35326;SDS011;21436;52.348;20.928;2022-10-16T02:53:31;27.13;;;16.27;;
35326;SDS011;21436;52.348;20.928;2022-10-16T02:55:58;28.75;;;15.88;;
35326;SDS011;21436;52.348;20.928;2022-10-16T02:58:26;29.45;;;15.73;;
35326;SDS011;21436;52.348;20.928;2022-10-16T03:00:57;26.35;;;15.18;;
35326;SDS011;21436;52.348;20.928;2022-10-16T03:03:25;30.73;;;15.63;;
35326;SDS011;21436;52.348;20.928;2022-10-16T03:05:53;23.90;;;15.73;;
35326;SDS011;21436;52.348;20.928;2022-10-16T03:08:21;28.48;;;15.25;;
35326;SDS011;21436;52.348;20.928;2022-10-16T03:10:52;32.15;;;17.75;;
35326;SDS011;21436;52.348;20.928;2022-10-16T03:13:20;27.55;;;15.90;;
35326;SDS011;21436;52.348;20.928;2022-10-16T03:15:48;30.10;;;17.35;;
35326;SDS011;21436;52.348;20.928;2022-10-16T03:18:17;29.70;;;17.60;;
35326;SDS011;21436;52.348;20.928;2022-10-16T03:20:45;33.78;;;16.55;;
35326;SDS011;21436;52.348;20.928;2022-10-16T03:23:13;28.92;;;17.33;;
35326;SDS011;21436;52.348;20.928;2022-10-16T03:25:41;28.58;;;16.65;;
35326;SDS011;21436;52.348;20.928;2022-10-16T03:28:10;29.70;;;16.67;;
35326;SDS011;21436;52.348;20.928;2022-10-16T03:30:37;27.30;;;16.83;;
35326;SDS011;21436;52.348;20.928;2022-10-16T03:33:07;29.42;;;17.35;;
35326;SDS011;21436;52.348;20.928;2022-10-16T03:35:34;25.92;;;15.23;;
35326;SDS011;21436;52.348;20.928;2022-10-16T03:38:03;24.92;;;16.08;;
35326;SDS011;21436;52.348;20.928;2022-10-16T03:40:30;28.52;;;17.17;;
35326;SDS011;21436;52.348;20.928;2022-10-16T03:42:59;27.85;;;16.33;;
35326;SDS011;21436;52.348;20.928;2022-10-16T03:45:28;29.05;;;16.42;;
35326;SDS011;21436;52.348;20.928;2022-10-16T03:47:56;30.30;;;16.48;;
35326;SDS011;21436;52.348;20.928;2022-10-16T03:50:24;29.27;;;16.77;;
35326;SDS011;21436;52.348;20.928;2022-10-16T03:52:52;29.23;;;17.25;;
35326;SDS011;21436;52.348;20.928;2022-10-16T03:55:20;28.85;;;17.60;;
35326;SDS011;21436;52.348;20.928;2022-10-16T03:57:49;26.88;;;17.35;;
35326;SDS011;21436;52.348;20.928;2022-10-16T04:00:17;27.55;;;17.23;;
35326;SDS011;21436;52.348;20.928;2022-10-16T04:02:45;30.23;;;17.02;;
35326;SDS011;21436;52.348;20.928;2022-10-16T04:05:13;29.48;;;17.42;;
35326;SDS011;21436;52.348;20.928;2022-10-16T04:07:41;30.13;;;18.25;;
35326;SDS011;21436;52.348;20.928;2022-10-16T04:10:09;30.25;;;17.67;;
35326;SDS011;21436;52.348;20.928;2022-10-16T04:12:37;34.28;;;16.77;;
35326;SDS011;21436;52.348;20.928;2022-10-16T04:15:05;29.10;;;16.70;;
35326;SDS011;21436;52.348;20.928;2022-10-16T04:17:33;28.83;;;16.88;;
35326;SDS011;21436;52.348;20.928;2022-10-16T04:20:02;30.27;;;17.08;;
35326;SDS011;21436;52.348;20.928;2022-10-16T04:22:31;27.13;;;16.67;;
35326;SDS011;21436;52.348;20.928;2022-10-16T04:24:59;32.42;;;16.92;;
35326;SDS011;21436;52.348;20.928;2022-10-16T04:27:27;28.20;;;16.63;;
35326;SDS011;21436;52.348;20.928;2022-10-16T04:29:56;29.23;;;17.45;;
35326;SDS011;21436;52.348;20.928;2022-10-16T04:32:28;30.75;;;17.88;;
35326;SDS011;21436;52.348;20.928;2022-10-16T04:34:56;30.02;;;18.30;;
35326;SDS011;21436;52.348;20.928;2022-10-16T04:37:25;27.67;;;17.33;;
35326;SDS011;21436;52.348;20.928;2022-10-16T04:39:54;27.60;;;17.70;;
35326;SDS011;21436;52.348;20.928;2022-10-16T04:42:23;29.45;;;17.63;;
35326;SDS011;21436;52.348;20.928;2022-10-16T04:44:51;33.05;;;18.00;;
35326;SDS011;21436;52.348;20.928;2022-10-16T04:47:20;27.67;;;17.42;;
35326;SDS011;21436;52.348;20.928;2022-10-16T04:49:48;30.55;;;19.25;;
35326;SDS011;21436;52.348;20.928;2022-10-16T04:52:16;29.52;;;18.63;;
35326;SDS011;21436;52.348;20.928;2022-10-16T04:54:45;33.47;;;17.88;;
35326;SDS011;21436;52.348;20.928;2022-10-16T04:57:14;28.90;;;18.05;;
35326;SDS011;21436;52.348;20.928;2022-10-16T04:59:42;30.23;;;18.98;;
35326;SDS011;21436;52.348;20.928;2022-10-16T05:02:10;34.85;;;19.67;;
35326;SDS011;21436;52.348;20.928;2022-10-16T05:04:39;33.60;;;18.10;;
35326;SDS011;21436;52.348;20.928;2022-10-16T05:07:07;34.33;;;18.55;;
35326;SDS011;21436;52.348;20.928;2022-10-16T05:09:35;30.73;;;18.02;;
35326;SDS011;21436;52.348;20.928;2022-10-16T05:12:03;31.90;;;18.83;;
35326;SDS011;21436;52.348;20.928;2022-10-16T05:14:31;30.80;;;18.52;;
35326;SDS011;21436;52.348;20.928;2022-10-16T05:17:00;30.15;;;18.30;;
35326;SDS011;21436;52.348;20.928;2022-10-16T05:19:28;36.25;;;19.73;;
35326;SDS011;21436;52.348;20.928;2022-10-16T05:21:56;34.83;;;20.30;;
35326;SDS011;21436;52.348;20.928;2022-10-16T05:24:24;34.08;;;19.38;;
35326;SDS011;21436;52.348;20.928;2022-10-16T05:26:53;32.22;;;18.40;;
35326;SDS011;21436;52.348;20.928;2022-10-16T05:29:21;28.45;;;18.65;;
35326;SDS011;21436;52.348;20.928;2022-10-16T05:31:52;37.22;;;18.63;;
35326;SDS011;21436;52.348;20.928;2022-10-16T05:34:21;35.40;;;20.70;;
35326;SDS011;21436;52.348;20.928;2022-10-16T05:36:49;34.90;;;19.50;;
35326;SDS011;21436;52.348;20.928;2022-10-16T05:39:17;37.80;;;19.95;;
35326;SDS011;21436;52.348;20.928;2022-10-16T05:41:45;40.47;;;20.25;;
35326;SDS011;21436;52.348;20.928;2022-10-16T05:44:14;35.72;;;20.80;;
35326;SDS011;21436;52.348;20.928;2022-10-16T05:46:42;37.80;;;20.70;;
35326;SDS011;21436;52.348;20.928;2022-10-16T05:49:10;34.15;;;19.95;;
35326;SDS011;21436;52.348;20.928;2022-10-16T05:51:38;29.50;;;18.05;;
35326;SDS011;21436;52.348;20.928;2022-10-16T05:54:06;32.83;;;17.65;;
35326;SDS011;21436;52.348;20.928;2022-10-16T05:56:34;26.00;;;17.23;;
35326;SDS011;21436;52.348;20.928;2022-10-16T05:59:03;28.63;;;17.15;;
35326;SDS011;21436;52.348;20.928;2022-10-16T06:01:32;28.17;;;16.90;;
35326;SDS011;21436;52.348;20.928;2022-10-16T06:04:00;29.92;;;17.58;;
35326;SDS011;21436;52.348;20.928;2022-10-16T06:06:29;29.10;;;17.33;;
35326;SDS011;21436;52.348;20.928;2022-10-16T06:08:58;30.15;;;17.48;;
35326;SDS011;21436;52.348;20.928;2022-10-16T06:11:28;31.58;;;18.67;;
35326;SDS011;21436;52.348;20.928;2022-10-16T06:13:58;28.70;;;17.55;;
35326;SDS011;21436;52.348;20.928;2022-10-16T06:16:29;31.92;;;17.92;;
35326;SDS011;21436;52.348;20.928;2022-10-16T06:18:57;33.22;;;18.55;;
35326;SDS011;21436;52.348;20.928;2022-10-16T06:21:27;28.08;;;17.05;;
35326;SDS011;21436;52.348;20.928;2022-10-16T06:23:56;31.17;;;17.17;;
35326;SDS011;21436;52.348;20.928;2022-10-16T06:26:26;27.52;;;16.58;;
35326;SDS011;21436;52.348;20.928;2022-10-16T06:28:56;29.23;;;16.55;;
35326;SDS011;21436;52.348;20.928;2022-10-16T06:31:25;27.60;;;15.60;;
35326;SDS011;21436;52.348;20.928;2022-10-16T06:33:54;25.95;;;15.98;;
35326;SDS011;21436;52.348;20.928;2022-10-16T06:36:23;25.15;;;15.60;;
35326;SDS011;21436;52.348;20.928;2022-10-16T06:38:52;22.05;;;15.48;;
35326;SDS011;21436;52.348;20.928;2022-10-16T06:41:21;23.52;;;15.63;;
35326;SDS011;21436;52.348;20.928;2022-10-16T06:43:50;27.70;;;16.55;;
35326;SDS011;21436;52.348;20.928;2022-10-16T06:46:21;28.10;;;16.02;;
35326;SDS011;21436;52.348;20.928;2022-10-16T06:48:49;24.45;;;16.05;;
35326;SDS011;21436;52.348;20.928;2022-10-16T06:51:19;28.58;;;15.98;;
35326;SDS011;21436;52.348;20.928;2022-10-16T06:53:49;27.77;;;16.77;;
35326;SDS011;21436;52.348;20.928;2022-10-16T06:56:31;24.45;;;15.00;;
35326;SDS011;21436;52.348;20.928;2022-10-16T06:59:00;26.80;;;15.02;;
35326;SDS011;21436;52.348;20.928;2022-10-16T07:01:29;23.48;;;15.10;;
35326;SDS011;21436;52.348;20.928;2022-10-16T07:03:57;28.35;;;15.27;;
35326;SDS011;21436;52.348;20.928;2022-10-16T07:06:26;24.00;;;15.52;;
35326;SDS011;21436;52.348;20.928;2022-10-16T07:08:54;22.85;;;14.50;;
35326;SDS011;21436;52.348;20.928;2022-10-16T07:11:23;23.80;;;14.75;;
35326;SDS011;21436;52.348;20.928;2022-10-16T07:13:51;31.13;;;15.25;;
35326;SDS011;21436;52.348;20.928;2022-10-16T07:16:24;22.30;;;14.27;;
35326;SDS011;21436;52.348;20.928;2022-10-16T07:18:57;23.92;;;14.15;;
35326;SDS011;21436;52.348;20.928;2022-10-16T07:21:28;24.42;;;15.63;;
35326;SDS011;21436;52.348;20.928;2022-10-16T07:24:04;24.05;;;14.07;;
35326;SDS011;21436;52.348;20.928;2022-10-16T07:26:34;25.25;;;14.13;;
35326;SDS011;21436;52.348;20.928;2022-10-16T07:29:03;27.63;;;15.10;;
35326;SDS011;21436;52.348;20.928;2022-10-16T07:31:31;27.60;;;15.43;;
35326;SDS011;21436;52.348;20.928;2022-10-16T07:34:00;23.15;;;15.32;;
35326;SDS011;21436;52.348;20.928;2022-10-16T07:36:29;24.50;;;14.48;;
35326;SDS011;21436;52.348;20.928;2022-10-16T07:38:57;26.92;;;15.02;;
35326;SDS011;21436;52.348;20.928;2022-10-16T07:41:27;24.35;;;15.38;;
35326;SDS011;21436;52.348;20.928;2022-10-16T07:43:55;22.85;;;14.75;;
35326;SDS011;21436;52.348;20.928;2022-10-16T07:46:27;26.77;;;15.10;;
35326;SDS011;21436;52.348;20.928;2022-10-16T07:48:56;22.85;;;14.13;;
35326;SDS011;21436;52.348;20.928;2022-10-16T07:51:25;26.40;;;15.25;;
35326;SDS011;21436;52.348;20.928;2022-10-16T07:53:53;23.75;;;15.05;;
35326;SDS011;21436;52.348;20.928;2022-10-16T07:56:21;19.75;;;14.00;;
35326;SDS011;21436;52.348;20.928;2022-10-16T07:58:50;32.55;;;14.40;;
35326;SDS011;21436;52.348;20.928;2022-10-16T08:01:19;27.38;;;15.07;;
35326;SDS011;21436;52.348;20.928;2022-10-16T08:03:48;24.17;;;14.85;;
35326;SDS011;21436;52.348;20.928;2022-10-16T08:06:19;23.25;;;14.35;;
35326;SDS011;21436;52.348;20.928;2022-10-16T08:08:55;22.95;;;14.90;;
35326;SDS011;21436;52.348;20.928;2022-10-16T08:11:23;23.98;;;14.20;;
35326;SDS011;21436;52.348;20.928;2022-10-16T08:13:51;25.05;;;14.77;;
35326;SDS011;21436;52.348;20.928;2022-10-16T08:16:20;22.55;;;14.65;;
35326;SDS011;21436;52.348;20.928;2022-10-16T08:18:48;22.63;;;14.07;;
35326;SDS011;21436;52.348;20.928;2022-10-16T08:21:17;24.55;;;14.45;;
35326;SDS011;21436;52.348;20.928;2022-10-16T08:23:48;23.38;;;14.98;;
35326;SDS011;21436;52.348;20.928;2022-10-16T08:26:25;25.10;;;15.65;;
35326;SDS011;21436;52.348;20.928;2022-10-16T08:28:54;26.55;;;16.38;;
35326;SDS011;21436;52.348;20.928;2022-10-16T08:31:23;29.38;;;16.90;;
35326;SDS011;21436;52.348;20.928;2022-10-16T08:33:53;32.15;;;16.85;;
35326;SDS011;21436;52.348;20.928;2022-10-16T08:36:21;27.60;;;15.93;;
35326;SDS011;21436;52.348;20.928;2022-10-16T08:38:50;27.80;;;16.35;;
35326;SDS011;21436;52.348;20.928;2022-10-16T08:41:35;32.53;;;15.23;;
35326;SDS011;21436;52.348;20.928;2022-10-16T08:49:52;27.58;;;14.15;;
35326;SDS011;21436;52.348;20.928;2022-10-16T08:52:28;23.60;;;14.52;;
35326;SDS011;21436;52.348;20.928;2022-10-16T08:54:57;27.08;;;13.77;;
35326;SDS011;21436;52.348;20.928;2022-10-16T08:57:26;17.45;;;12.73;;
35326;SDS011;21436;52.348;20.928;2022-10-16T09:00:00;20.25;;;13.85;;
35326;SDS011;21436;52.348;20.928;2022-10-16T09:02:53;21.10;;;13.00;;
35326;SDS011;21436;52.348;20.928;2022-10-16T09:11:32;21.85;;;12.60;;
35326;SDS011;21436;52.348;20.928;2022-10-16T09:14:15;19.17;;;12.35;;
35326;SDS011;21436;52.348;20.928;2022-10-16T09:16:57;15.55;;;11.38;;
35326;SDS011;21436;52.348;20.928;2022-10-16T09:21:59;19.20;;;12.65;;
35326;SDS011;21436;52.348;20.928;2022-10-16T09:24:29;21.08;;;12.65;;
35326;SDS011;21436;52.348;20.928;2022-10-16T09:26:57;16.38;;;11.18;;
35326;SDS011;21436;52.348;20.928;2022-10-16T09:29:25;20.15;;;11.82;;
35326;SDS011;21436;52.348;20.928;2022-10-16T09:31:53;19.88;;;12.20;;
35326;SDS011;21436;52.348;20.928;2022-10-16T09:37:04;17.25;;;11.50;;
35326;SDS011;21436;52.348;20.928;2022-10-16T09:39:47;17.02;;;10.77;;
35326;SDS011;21436;52.348;20.928;2022-10-16T09:42:19;19.05;;;11.88;;
35326;SDS011;21436;52.348;20.928;2022-10-16T09:44:51;15.75;;;11.52;;
35326;SDS011;21436;52.348;20.928;2022-10-16T09:47:21;17.48;;;11.68;;
35326;SDS011;21436;52.348;20.928;2022-10-16T09:50:13;18.98;;;11.57;;
35326;SDS011;21436;52.348;20.928;2022-10-16T09:52:49;16.48;;;11.32;;
35326;SDS011;21436;52.348;20.928;2022-10-16T09:55:18;15.05;;;11.10;;
35326;SDS011;21436;52.348;20.928;2022-10-16T09:57:52;14.90;;;10.70;;
35326;SDS011;21436;52.348;20.928;2022-10-16T10:00:23;16.80;;;11.07;;
35326;SDS011;21436;52.348;20.928;2022-10-16T10:02:52;24.73;;;11.82;;
35326;SDS011;21436;52.348;20.928;2022-10-16T10:05:21;15.05;;;11.50;;
35326;SDS011;21436;52.348;20.928;2022-10-16T10:08:02;18.40;;;11.15;;
35326;SDS011;21436;52.348;20.928;2022-10-16T10:10:41;15.80;;;11.27;;
35326;SDS011;21436;52.348;20.928;2022-10-16T10:13:22;16.88;;;11.35;;
35326;SDS011;21436;52.348;20.928;2022-10-16T10:15:52;16.90;;;11.70;;
35326;SDS011;21436;52.348;20.928;2022-10-16T10:18:21;15.23;;;10.45;;
35326;SDS011;21436;52.348;20.928;2022-10-16T10:21:03;16.40;;;10.75;;
35326;SDS011;21436;52.348;20.928;2022-10-16T10:23:33;19.65;;;10.50;;
35326;SDS011;21436;52.348;20.928;2022-10-16T10:26:11;16.63;;;10.65;;
35326;SDS011;21436;52.348;20.928;2022-10-16T10:28:53;20.30;;;10.80;;
35326;SDS011;21436;52.348;20.928;2022-10-16T10:31:35;15.93;;;10.82;;
35326;SDS011;21436;52.348;20.928;2022-10-16T10:40:45;17.50;;;10.88;;
35326;SDS011;21436;52.348;20.928;2022-10-16T10:43:25;17.17;;;11.48;;
35326;SDS011;21436;52.348;20.928;2022-10-16T10:46:04;15.35;;;11.00;;
35326;SDS011;21436;52.348;20.928;2022-10-16T10:56:50;17.73;;;11.60;;
35326;SDS011;21436;52.348;20.928;2022-10-16T10:59:32;17.13;;;11.27;;
35326;SDS011;21436;52.348;20.928;2022-10-16T11:07:49;35.10;;;17.30;;
35326;SDS011;21436;52.348;20.928;2022-10-16T11:10:21;41.55;;;22.50;;
35326;SDS011;21436;52.348;20.928;2022-10-16T11:13:42;40.88;;;20.95;;
35326;SDS011;21436;52.348;20.928;2022-10-16T11:16:02;37.25;;;19.90;;
35326;SDS011;21436;52.348;20.928;2022-10-16T11:18:52;26.45;;;13.82;;
35326;SDS011;21436;52.348;20.928;2022-10-16T11:21:25;33.22;;;20.13;;
35326;SDS011;21436;52.348;20.928;2022-10-16T11:23:59;74.28;;;37.92;;
35326;SDS011;21436;52.348;20.928;2022-10-16T11:26:33;29.10;;;16.38;;
35326;SDS011;21436;52.348;20.928;2022-10-16T11:29:03;30.27;;;17.08;;
35326;SDS011;21436;52.348;20.928;2022-10-16T11:31:37;36.80;;;21.25;;
35326;SDS011;21436;52.348;20.928;2022-10-16T11:39:49;20.60;;;11.45;;
35326;SDS011;21436;52.348;20.928;2022-10-16T11:42:22;29.50;;;16.88;;
35326;SDS011;21436;52.348;20.928;2022-10-16T11:47:44;22.75;;;13.98;;
35326;SDS011;21436;52.348;20.928;2022-10-16T11:55:57;16.80;;;11.95;;
35326;SDS011;21436;52.348;20.928;2022-10-16T11:58:33;14.05;;;10.50;;
35326;SDS011;21436;52.348;20.928;2022-10-16T12:09:27;17.40;;;11.48;;
35326;SDS011;21436;52.348;20.928;2022-10-16T12:11:56;15.77;;;11.10;;
35326;SDS011;21436;52.348;20.928;2022-10-16T12:17:36;15.18;;;10.98;;
35326;SDS011;21436;52.348;20.928;2022-10-16T12:20:27;18.23;;;11.18;;
35326;SDS011;21436;52.348;20.928;2022-10-16T12:23:00;15.25;;;10.63;;
35326;SDS011;21436;52.348;20.928;2022-10-16T12:28:03;18.65;;;11.20;;
35326;SDS011;21436;52.348;20.928;2022-10-16T12:33:31;15.77;;;10.65;;
35326;SDS011;21436;52.348;20.928;2022-10-16T12:36:13;17.92;;;10.63;;
35326;SDS011;21436;52.348;20.928;2022-10-16T12:38:49;15.35;;;10.60;;
35326;SDS011;21436;52.348;20.928;2022-10-16T12:41:32;20.38;;;9.63;;
35326;SDS011;21436;52.348;20.928;2022-10-16T12:51:42;17.02;;;9.30;;
35326;SDS011;21436;52.348;20.928;2022-10-16T12:54:18;18.33;;;10.07;;
35326;SDS011;21436;52.348;20.928;2022-10-16T13:10:25;15.95;;;9.85;;
35326;SDS011;21436;52.348;20.928;2022-10-16T13:16:05;17.77;;;9.40;;
35326;SDS011;21436;52.348;20.928;2022-10-16T13:22:48;16.65;;;10.32;;
35326;SDS011;21436;52.348;20.928;2022-10-16T13:28:06;16.73;;;9.98;;
35326;SDS011;21436;52.348;20.928;2022-10-16T13:30:40;15.88;;;9.80;;
35326;SDS011;21436;52.348;20.928;2022-10-16T13:33:13;14.48;;;10.48;;
35326;SDS011;21436;52.348;20.928;2022-10-16T13:35:48;12.43;;;9.65;;
35326;SDS011;21436;52.348;20.928;2022-10-16T13:38:19;17.10;;;10.52;;
35326;SDS011;21436;52.348;20.928;2022-10-16T13:40:58;13.50;;;9.25;;
35326;SDS011;21436;52.348;20.928;2022-10-16T13:43:32;23.25;;;9.70;;
35326;SDS011;21436;52.348;20.928;2022-10-16T13:46:05;16.25;;;10.23;;
35326;SDS011;21436;52.348;20.928;2022-10-16T13:48:35;18.13;;;10.35;;
35326;SDS011;21436;52.348;20.928;2022-10-16T13:51:14;17.25;;;9.93;;
35326;SDS011;21436;52.348;20.928;2022-10-16T13:53:46;17.67;;;10.47;;
35326;SDS011;21436;52.348;20.928;2022-10-16T13:58:57;15.35;;;10.48;;
35326;SDS011;21436;52.348;20.928;2022-10-16T14:04:07;22.35;;;11.63;;
35326;SDS011;21436;52.348;20.928;2022-10-16T14:06:40;14.98;;;10.43;;
35326;SDS011;21436;52.348;20.928;2022-10-16T14:09:13;15.98;;;10.80;;
35326;SDS011;21436;52.348;20.928;2022-10-16T14:12:08;17.63;;;11.00;;
35326;SDS011;21436;52.348;20.928;2022-10-16T14:14:40;16.45;;;11.00;;
35326;SDS011;21436;52.348;20.928;2022-10-16T14:17:16;19.70;;;11.65;;
35326;SDS011;21436;52.348;20.928;2022-10-16T14:19:53;17.35;;;10.43;;
35326;SDS011;21436;52.348;20.928;2022-10-16T14:22:32;17.67;;;11.23;;
35326;SDS011;21436;52.348;20.928;2022-10-16T14:28:00;17.02;;;11.88;;
35326;SDS011;21436;52.348;20.928;2022-10-16T14:33:18;14.90;;;10.15;;
35326;SDS011;21436;52.348;20.928;2022-10-16T14:36:06;14.93;;;10.37;;
35326;SDS011;21436;52.348;20.928;2022-10-16T14:38:43;20.02;;;10.52;;
35326;SDS011;21436;52.348;20.928;2022-10-16T14:41:32;14.20;;;10.05;;
35326;SDS011;21436;52.348;20.928;2022-10-16T14:44:11;16.42;;;10.43;;
35326;SDS011;21436;52.348;20.928;2022-10-16T14:46:40;15.73;;;10.57;;
35326;SDS011;21436;52.348;20.928;2022-10-16T14:51:38;18.85;;;11.55;;
35326;SDS011;21436;52.348;20.928;2022-10-16T14:54:09;17.40;;;11.55;;
35326;SDS011;21436;52.348;20.928;2022-10-16T14:56:43;17.75;;;10.52;;
35326;SDS011;21436;52.348;20.928;2022-10-16T14:59:19;18.05;;;10.77;;
35326;SDS011;21436;52.348;20.928;2022-10-16T15:01:47;15.50;;;11.07;;
35326;SDS011;21436;52.348;20.928;2022-10-16T15:04:16;15.55;;;10.85;;
35326;SDS011;21436;52.348;20.928;2022-10-16T15:06:45;18.73;;;11.23;;
35326;SDS011;21436;52.348;20.928;2022-10-16T15:09:13;21.13;;;11.23;;
35326;SDS011;21436;52.348;20.928;2022-10-16T15:11:42;17.85;;;11.25;;
35326;SDS011;21436;52.348;20.928;2022-10-16T15:14:11;15.63;;;10.65;;
35326;SDS011;21436;52.348;20.928;2022-10-16T15:16:42;22.73;;;12.05;;
35326;SDS011;21436;52.348;20.928;2022-10-16T15:19:14;19.05;;;12.18;;
35326;SDS011;21436;52.348;20.928;2022-10-16T15:21:42;17.05;;;11.35;;
35326;SDS011;21436;52.348;20.928;2022-10-16T15:24:12;18.67;;;11.77;;
35326;SDS011;21436;52.348;20.928;2022-10-16T15:26:46;25.13;;;11.85;;
35326;SDS011;21436;52.348;20.928;2022-10-16T15:29:15;22.60;;;12.80;;
35326;SDS011;21436;52.348;20.928;2022-10-16T15:31:43;17.27;;;12.60;;
35326;SDS011;21436;52.348;20.928;2022-10-16T15:34:11;18.63;;;13.13;;
35326;SDS011;21436;52.348;20.928;2022-10-16T15:36:40;19.55;;;12.13;;
35326;SDS011;21436;52.348;20.928;2022-10-16T15:39:13;19.52;;;12.20;;
35326;SDS011;21436;52.348;20.928;2022-10-16T15:41:42;22.38;;;12.35;;
35326;SDS011;21436;52.348;20.928;2022-10-16T15:44:12;18.20;;;11.40;;
35326;SDS011;21436;52.348;20.928;2022-10-16T15:46:39;15.77;;;10.65;;
35326;SDS011;21436;52.348;20.928;2022-10-16T15:49:08;18.52;;;11.30;;
35326;SDS011;21436;52.348;20.928;2022-10-16T15:51:40;16.92;;;11.93;;
35326;SDS011;21436;52.348;20.928;2022-10-16T15:54:09;17.33;;;11.80;;
35326;SDS011;21436;52.348;20.928;2022-10-16T15:56:37;17.50;;;12.00;;
35326;SDS011;21436;52.348;20.928;2022-10-16T15:59:05;18.90;;;12.15;;
35326;SDS011;21436;52.348;20.928;2022-10-16T16:01:34;20.00;;;12.48;;
35326;SDS011;21436;52.348;20.928;2022-10-16T16:04:03;17.92;;;13.05;;
35326;SDS011;21436;52.348;20.928;2022-10-16T16:06:51;24.00;;;12.32;;
35326;SDS011;21436;52.348;20.928;2022-10-16T16:09:20;19.70;;;12.43;;
35326;SDS011;21436;52.348;20.928;2022-10-16T16:11:48;16.13;;;11.95;;
35326;SDS011;21436;52.348;20.928;2022-10-16T16:14:19;17.65;;;11.57;;
35326;SDS011;21436;52.348;20.928;2022-10-16T16:16:47;18.60;;;12.00;;
35326;SDS011;21436;52.348;20.928;2022-10-16T16:19:15;22.17;;;13.45;;
35326;SDS011;21436;52.348;20.928;2022-10-16T16:21:45;23.85;;;13.63;;
35326;SDS011;21436;52.348;20.928;2022-10-16T16:24:14;19.33;;;12.80;;
35326;SDS011;21436;52.348;20.928;2022-10-16T16:26:42;24.67;;;12.52;;
35326;SDS011;21436;52.348;20.928;2022-10-16T16:29:11;57.08;;;14.63;;
35326;SDS011;21436;52.348;20.928;2022-10-16T16:31:41;22.95;;;13.10;;
35326;SDS011;21436;52.348;20.928;2022-10-16T16:34:10;19.75;;;13.10;;
35326;SDS011;21436;52.348;20.928;2022-10-16T16:36:38;25.02;;;12.57;;
35326;SDS011;21436;52.348;20.928;2022-10-16T16:39:07;21.17;;;12.63;;
35326;SDS011;21436;52.348;20.928;2022-10-16T16:41:35;20.13;;;13.20;;
35326;SDS011;21436;52.348;20.928;2022-10-16T16:44:05;22.98;;;13.07;;